Cedar City, UT

9:32 AM MDT on September 16, 2014 (GMT -0600)
NR7E | Change Station
CLOSE
Current Station
Personal Weather Station
Location: Cedar City, UT
Elevation: 5474 ft
Nearby Weather Stations

Elev 5474 ft 37.77 °N, 113.10 °W | Updated 5 seconds ago

Haze
Haze
71.1 °F
Feels Like 77 °F
N
0.0
Wind Variable Wind from SSE
Gusts 0.0 mph

Today
High -- | Low -- °F
--% Chance of Precip.
Yesterday
High -- | Low -- °F
Precip. -- in
7:15 AM 7:38 PM
Last Quarter, 44% visible
Pressure 30.00 in
Visibility 4.0 miles
Clouds Clear
Heat Index 77 °F
Dew Point 47 °F
Humidity 42%
Rainfall 0.00 in
Snow Depth 0 in , 0 in , 0 in
UV 1 out of 12
Pollen 6.20 out of 12
Air Quality Not available.
Flu Activity Not available.
METAR KCDC 161453Z AUTO 26003KT 4SM HZ CLR 17/06 A3020 RMK AO2 SLP157 T01670061 51004

More Conditions Fewer Conditions

Pressure 30.00 in
Visibility 4.0 miles
Clouds Clear
Heat Index 77 °F
Dew Point 47 °F
Humidity 42%
Rainfall 0.00 in
Snow Depth 0 in , 0 in , 0 in
UV 1 out of 12
Pollen 6.20 out of 12
Air Quality Not available.
Flu Activity Not available.
METAR KCDC 161453Z AUTO 26003KT 4SM HZ CLR 17/06 A3020 RMK AO2 SLP157 T01670061 51004

More Conditions Fewer Conditions

10-Day Weather Forecast

Almanac

Astronomy

Sep. 16, 2014 Rise Set
Actual Time 7:15 AM MDT 7:38 PM MDT
Civil Twilight 6:49 AM MDT 8:04 PM MDT
Nautical Twilight 6:18 AM MDT 8:35 PM MDT
Astronomical Twilight 5:46 AM MDT 9:07 PM MDT
Moon 12:33 AM MDT 3:00 PM MDT
Length of Visible Light 13h 15m
Length of Day
12h 23m
Tomorrow will be 2m 23s shorter.
Last Quarter, 44% of the Moon is Illuminated
Today
Last Quarter
Sep 24
New
Oct 1
First Quarter
Oct 8
Full
Oct 15
Last Quarter

Today's Extremes

State Highs State Lows

Community

WunderPhotos

Upload Photos

1,753,810 photos uploaded!

Nearby

Snow Depth

Station Depth Elevation
Box Creek 0 in 9800 ft
Hewinta 0 in 9500 ft
Kimberly Mine 0 in 9300 ft
Agua Canyon 0 in 8900 ft
Rock Creek 0 in 7900 ft

Earthquake Activity

City Distance Mag. Time & Date
Alamo, Nevada 104 miles 2.6 9:36 AM MDT
2014-09-14
Minimum magnitude displayed is 2.5.

Coastal Water Temperatures

Place Temperature
No Stations Reporting

Nearby Weather Stations